createdAt,value
2019-01-26T00:00:48.229Z,56.88
2019-01-26T00:01:52.353Z,56.85
2019-01-26T00:02:56.409Z,56.77
2019-01-26T00:04:00.607Z,56.68
2019-01-26T00:05:05.591Z,56.68
2019-01-26T00:06:09.869Z,56.69
2019-01-26T00:07:13.960Z,56.71
2019-01-26T00:08:17.965Z,56.63
2019-01-26T00:09:21.975Z,56.47
2019-01-26T00:10:26.052Z,56.33
2019-01-26T00:11:30.067Z,56.24
2019-01-26T00:12:34.107Z,55.75
2019-01-26T00:13:38.102Z,55.75
2019-01-26T00:14:42.114Z,55.65
2019-01-26T00:15:46.147Z,55.56
2019-01-26T00:16:50.213Z,55.53
2019-01-26T00:17:54.249Z,55.56
2019-01-26T00:18:58.095Z,55.61
2019-01-26T00:20:02.042Z,55.67
2019-01-26T00:21:06.031Z,55.73
2019-01-26T00:22:10.039Z,55.73
2019-01-26T00:23:14.055Z,55.68
2019-01-26T00:24:17.990Z,55.69
2019-01-26T00:25:21.989Z,55.60
2019-01-26T00:26:26.329Z,55.54
2019-01-26T00:27:30.253Z,55.47
2019-01-26T00:28:34.327Z,55.38
2019-01-26T00:29:38.339Z,55.34
2019-01-26T00:30:42.343Z,55.26
2019-01-26T00:31:46.695Z,55.19
2019-01-26T00:32:50.725Z,55.12
2019-01-26T00:33:55.021Z,55.08
2019-01-26T00:34:58.993Z,55.00
2019-01-26T00:36:02.995Z,54.93
2019-01-26T00:37:07.311Z,54.94
2019-01-26T00:38:11.636Z,54.90
2019-01-26T00:39:15.692Z,54.80
2019-01-26T00:40:19.699Z,54.63
2019-01-26T00:41:23.699Z,54.55
2019-01-26T00:42:28.154Z,54.59
2019-01-26T00:43:32.498Z,54.61
2019-01-26T00:44:36.434Z,54.61
2019-01-26T00:45:40.434Z,54.55
2019-01-26T00:46:44.434Z,54.50
2019-01-26T00:47:48.774Z,54.45
2019-01-26T00:48:52.781Z,54.28
2019-01-26T00:49:56.784Z,54.29
2019-01-26T00:51:00.791Z,54.27
2019-01-26T00:52:04.900Z,54.26
2019-01-26T00:53:08.845Z,54.28
2019-01-26T00:54:12.856Z,54.32
2019-01-26T00:55:17.107Z,54.39
2019-01-26T00:56:21.161Z,54.42
2019-01-26T00:57:25.172Z,54.38
2019-01-26T00:58:29.556Z,54.37
2019-01-26T00:59:33.775Z,54.44
2019-01-26T01:00:37.781Z,54.51
2019-01-26T01:01:41.793Z,54.46
2019-01-26T01:02:45.905Z,54.44
2019-01-26T01:03:49.921Z,54.46
2019-01-26T01:04:53.927Z,54.52
2019-01-26T01:05:58.197Z,54.61
2019-01-26T01:07:02.191Z,54.66
2019-01-26T01:08:06.387Z,54.69
2019-01-26T01:09:10.514Z,54.71
2019-01-26T01:10:15.228Z,54.68
2019-01-26T01:11:19.157Z,54.75
2019-01-26T01:12:23.336Z,54.81
2019-01-26T01:13:27.350Z,54.89
2019-01-26T01:14:31.281Z,54.91
2019-01-26T01:15:35.291Z,54.94
2019-01-26T01:16:39.297Z,54.91
2019-01-26T01:17:43.299Z,55.00
2019-01-26T01:18:47.361Z,55.08
2019-01-26T01:19:51.337Z,55.12
2019-01-26T01:20:55.447Z,55.16
2019-01-26T01:21:59.753Z,55.16
2019-01-26T01:23:03.746Z,55.19
2019-01-26T01:24:08.009Z,55.22
2019-01-26T01:25:12.560Z,55.20
2019-01-26T01:26:16.800Z,55.26
2019-01-26T01:27:20.799Z,55.33
2019-01-26T01:28:25.045Z,55.43
2019-01-26T01:29:29.072Z,55.55
2019-01-26T01:30:33.177Z,55.65
2019-01-26T01:31:37.340Z,55.71
2019-01-26T01:32:41.255Z,55.69
2019-01-26T01:33:45.250Z,55.70
2019-01-26T01:34:49.297Z,55.71
2019-01-26T01:35:53.577Z,55.84
2019-01-26T01:36:57.756Z,55.93
2019-01-26T01:38:02.002Z,56.02
2019-01-26T01:39:08.708Z,56.10
2019-01-26T01:40:13.208Z,56.12
2019-01-26T01:41:17.219Z,56.11
2019-01-26T01:42:21.221Z,56.12
2019-01-26T01:43:25.216Z,56.16
2019-01-26T01:44:29.230Z,56.12
2019-01-26T01:45:33.483Z,56.07
2019-01-26T01:46:42.919Z,56.08
2019-01-26T01:47:43.323Z,56.08
2019-01-26T01:48:47.489Z,56.03
2019-01-26T01:49:51.559Z,55.98
2019-01-26T01:50:55.561Z,56.02
2019-01-26T01:51:59.868Z,56.07
2019-01-26T01:53:03.963Z,56.04
2019-01-26T01:54:07.996Z,56.03
2019-01-26T01:55:12.893Z,56.01
2019-01-26T01:56:16.965Z,56.00
2019-01-26T01:57:20.936Z,55.97
2019-01-26T01:58:24.956Z,55.87
2019-01-26T01:59:28.872Z,55.84
2019-01-26T02:00:32.888Z,55.80
2019-01-26T02:01:36.817Z,55.81
2019-01-26T02:02:41.004Z,55.75
2019-01-26T02:03:44.931Z,55.79
2019-01-26T02:04:48.929Z,55.80
2019-01-26T02:05:52.858Z,55.83
2019-01-26T02:06:56.851Z,55.83
2019-01-26T02:08:00.780Z,55.83
2019-01-26T02:09:07.795Z,55.77
2019-01-26T02:10:13.433Z,55.76
2019-01-26T02:11:17.441Z,55.80
2019-01-26T02:12:21.446Z,55.76
2019-01-26T02:13:25.720Z,55.78
2019-01-26T02:14:29.790Z,55.77
2019-01-26T02:15:33.805Z,55.77
2019-01-26T02:16:37.811Z,55.76
2019-01-26T02:17:42.008Z,55.74
2019-01-26T02:18:45.930Z,55.78
2019-01-26T02:19:50.023Z,55.80
2019-01-26T02:20:54.041Z,55.80
2019-01-26T02:21:58.044Z,55.79
2019-01-26T02:23:02.049Z,55.76
2019-01-26T02:24:06.058Z,55.73
2019-01-26T02:25:10.157Z,55.72
2019-01-26T02:26:14.176Z,55.75
2019-01-26T02:27:18.181Z,55.75
2019-01-26T02:28:22.435Z,55.75
2019-01-26T02:29:26.455Z,55.79
2019-01-26T02:30:30.476Z,55.86
2019-01-26T02:31:34.482Z,55.89
2019-01-26T02:32:38.482Z,55.84
2019-01-26T02:33:42.893Z,55.91
2019-01-26T02:34:46.790Z,55.93
2019-01-26T02:35:50.873Z,56.00
2019-01-26T02:36:55.128Z,56.05
2019-01-26T02:37:59.118Z,56.10
2019-01-26T02:39:04.641Z,56.18
2019-01-26T02:40:10.369Z,56.25
2019-01-26T02:41:14.394Z,56.27
2019-01-26T02:42:18.355Z,56.20
2019-01-26T02:43:22.664Z,56.26
2019-01-26T02:44:26.833Z,56.36
2019-01-26T02:45:30.937Z,56.41
2019-01-26T02:46:34.877Z,56.45
2019-01-26T02:47:39.135Z,56.42
2019-01-26T02:48:43.382Z,56.41
2019-01-26T02:49:47.379Z,56.44
2019-01-26T02:50:51.320Z,56.46
2019-01-26T02:51:55.595Z,56.49
2019-01-26T02:52:59.901Z,56.50
2019-01-26T02:54:03.905Z,56.53
2019-01-26T02:55:08.020Z,56.53
2019-01-26T02:56:12.413Z,56.55
2019-01-26T02:57:16.427Z,56.57
2019-01-26T02:58:20.409Z,56.59
2019-01-26T02:59:24.730Z,56.60
2019-01-26T03:00:29.057Z,56.64
2019-01-26T03:01:33.081Z,56.63
2019-01-26T03:02:36.936Z,56.63
2019-01-26T03:03:41.140Z,56.65
2019-01-26T03:04:45.148Z,56.68
2019-01-26T03:05:49.075Z,56.73
2019-01-26T03:06:53.349Z,56.72
2019-01-26T03:07:57.472Z,56.73
2019-01-26T03:09:01.755Z,56.69
2019-01-26T03:10:07.302Z,56.68
2019-01-26T03:11:11.306Z,56.65
2019-01-26T03:12:15.320Z,56.62
2019-01-26T03:13:19.325Z,56.62
2019-01-26T03:14:23.251Z,56.60
2019-01-26T03:15:27.670Z,56.59
2019-01-26T03:16:31.928Z,56.60
2019-01-26T03:17:35.944Z,56.62
2019-01-26T03:18:40.181Z,56.64
2019-01-26T03:19:44.184Z,56.65
2019-01-26T03:20:48.197Z,56.68
2019-01-26T03:21:52.114Z,56.70
2019-01-26T03:22:56.127Z,56.71
2019-01-26T03:24:00.119Z,56.74
2019-01-26T03:25:05.096Z,56.78
2019-01-26T03:26:09.099Z,56.79
2019-01-26T03:27:13.112Z,56.85
2019-01-26T03:28:17.463Z,56.94
2019-01-26T03:29:21.462Z,56.98
2019-01-26T03:30:26.002Z,57.04
2019-01-26T03:31:29.994Z,57.07
2019-01-26T03:32:33.997Z,57.10
2019-01-26T03:33:38.240Z,57.15
2019-01-26T03:34:42.088Z,57.19
2019-01-26T03:35:46.342Z,57.26
2019-01-26T03:36:50.272Z,57.35
2019-01-26T03:37:54.201Z,57.43
2019-01-26T03:38:58.199Z,57.53
2019-01-26T03:40:02.445Z,57.65
2019-01-26T03:41:06.441Z,57.74
2019-01-26T03:42:10.433Z,57.85
2019-01-26T03:43:14.443Z,57.95
2019-01-26T03:44:18.665Z,58.04
2019-01-26T03:45:22.670Z,58.12
2019-01-26T03:46:26.665Z,58.16
2019-01-26T03:47:30.666Z,58.17
2019-01-26T03:48:34.683Z,58.20
2019-01-26T03:49:38.678Z,58.19
2019-01-26T03:50:42.692Z,58.19
2019-01-26T03:51:46.937Z,58.18
2019-01-26T03:52:50.883Z,58.20
2019-01-26T03:53:55.045Z,58.21
2019-01-26T03:54:59.162Z,58.20
2019-01-26T03:56:03.405Z,58.18
2019-01-26T03:57:07.650Z,58.20
2019-01-26T03:58:11.951Z,58.22
2019-01-26T03:59:15.941Z,58.23
2019-01-26T04:00:22.013Z,58.28
2019-01-26T04:01:26.003Z,58.31
2019-01-26T04:02:30.122Z,58.33
2019-01-26T04:03:34.136Z,58.40
2019-01-26T04:04:38.140Z,58.43
2019-01-26T04:05:42.137Z,58.46
2019-01-26T04:06:46.138Z,58.47
2019-01-26T04:07:50.138Z,58.49
2019-01-26T04:08:54.143Z,58.40
2019-01-26T04:09:58.135Z,58.32
2019-01-26T04:11:02.130Z,58.40
2019-01-26T04:12:06.126Z,58.46
2019-01-26T04:13:10.123Z,58.52
2019-01-26T04:14:14.127Z,58.56
2019-01-26T04:15:18.512Z,58.59
2019-01-26T04:16:23.008Z,58.64
2019-01-26T04:17:26.937Z,58.63
2019-01-26T04:18:30.860Z,58.65
2019-01-26T04:19:35.327Z,58.66
2019-01-26T04:20:39.489Z,58.68
2019-01-26T04:21:43.494Z,58.69
2019-01-26T04:22:47.495Z,58.64
2019-01-26T04:23:51.835Z,58.63
2019-01-26T04:24:55.853Z,58.65
2019-01-26T04:25:59.781Z,58.69
2019-01-26T04:27:03.785Z,58.69
2019-01-26T04:28:07.715Z,58.76
2019-01-26T04:29:11.744Z,58.79
2019-01-26T04:30:18.138Z,58.72
2019-01-26T04:31:22.430Z,58.73
2019-01-26T04:32:26.349Z,58.73
2019-01-26T04:33:30.289Z,58.77
2019-01-26T04:34:34.222Z,58.81
2019-01-26T04:35:38.230Z,58.86
2019-01-26T04:36:42.293Z,58.86
2019-01-26T04:37:46.309Z,58.90
2019-01-26T04:38:50.241Z,58.92
2019-01-26T04:39:54.635Z,58.89
2019-01-26T04:40:58.836Z,58.88
2019-01-26T04:42:03.066Z,58.91
2019-01-26T04:43:07.071Z,58.89
2019-01-26T04:44:12.998Z,58.90
2019-01-26T04:45:22.446Z,58.86
2019-01-26T04:46:27.142Z,58.82
2019-01-26T04:47:31.359Z,58.83
2019-01-26T04:48:35.269Z,58.89
2019-01-26T04:49:39.274Z,58.89
2019-01-26T04:50:43.273Z,58.88
2019-01-26T04:51:47.890Z,58.75
2019-01-26T04:52:51.873Z,58.84
2019-01-26T04:53:56.271Z,58.89
2019-01-26T04:55:00.296Z,58.94
2019-01-26T04:56:04.758Z,58.98
2019-01-26T04:57:08.690Z,58.98
2019-01-26T04:58:12.780Z,59.00
2019-01-26T04:59:16.796Z,59.02
2019-01-26T05:00:26.132Z,59.08
2019-01-26T05:01:30.129Z,59.15
2019-01-26T05:02:34.130Z,59.17
2019-01-26T05:03:38.208Z,59.12
2019-01-26T05:04:42.218Z,59.16
2019-01-26T05:05:46.225Z,59.20
2019-01-26T05:06:50.222Z,59.17
2019-01-26T05:07:54.299Z,59.21
2019-01-26T05:08:58.231Z,59.26
2019-01-26T05:10:02.234Z,59.25
2019-01-26T05:11:06.314Z,59.22
2019-01-26T05:12:10.317Z,59.21
2019-01-26T05:13:14.321Z,59.22
2019-01-26T05:14:18.316Z,59.21
2019-01-26T05:15:22.425Z,59.25
2019-01-26T05:16:26.465Z,59.28
2019-01-26T05:17:30.844Z,59.29
2019-01-26T05:18:34.767Z,59.26
2019-01-26T05:19:38.948Z,59.20
2019-01-26T05:20:42.966Z,59.12
2019-01-26T05:21:46.966Z,59.09
2019-01-26T05:22:51.078Z,59.10
2019-01-26T05:23:54.978Z,59.07
2019-01-26T05:24:59.353Z,59.03
2019-01-26T05:26:03.438Z,58.97
2019-01-26T05:27:07.436Z,58.96
2019-01-26T05:28:11.428Z,58.95
2019-01-26T05:29:15.776Z,58.93
2019-01-26T05:30:30.040Z,58.93
2019-01-26T05:31:34.045Z,58.92
2019-01-26T05:32:37.977Z,58.91
2019-01-26T05:33:42.329Z,58.90
2019-01-26T05:34:46.589Z,58.84
2019-01-26T05:35:50.784Z,58.83
2019-01-26T05:36:54.886Z,58.86
2019-01-26T05:37:59.147Z,58.93
2019-01-26T05:39:04.296Z,58.97
2019-01-26T05:40:11.221Z,58.94
2019-01-26T05:41:15.210Z,58.94
2019-01-26T05:42:19.128Z,58.93
2019-01-26T05:43:23.357Z,58.88
2019-01-26T05:44:27.360Z,58.83
2019-01-26T05:45:31.373Z,58.89
2019-01-26T05:46:35.362Z,58.90
2019-01-26T05:47:47.640Z,58.93
2019-01-26T05:48:44.989Z,58.96
2019-01-26T05:49:48.980Z,58.91
2019-01-26T05:50:52.986Z,58.96
2019-01-26T05:51:56.982Z,58.98
2019-01-26T05:53:00.971Z,59.03
2019-01-26T05:54:04.958Z,59.07
2019-01-26T05:55:09.186Z,59.08
2019-01-26T05:56:13.392Z,59.07
2019-01-26T05:57:17.316Z,59.03
2019-01-26T05:58:21.234Z,59.05
2019-01-26T05:59:25.219Z,59.07
2019-01-26T06:00:31.571Z,59.12
2019-01-26T06:01:35.574Z,59.20
2019-01-26T06:02:39.571Z,59.21
2019-01-26T06:03:43.563Z,59.23
2019-01-26T06:04:47.480Z,59.24
2019-01-26T06:05:51.420Z,59.20
2019-01-26T06:06:55.412Z,59.15
2019-01-26T06:07:59.499Z,59.16
2019-01-26T06:09:05.228Z,59.29
2019-01-26T06:10:09.537Z,59.35
2019-01-26T06:11:13.545Z,59.31
2019-01-26T06:12:17.540Z,59.35
2019-01-26T06:13:21.612Z,59.46
2019-01-26T06:14:25.770Z,59.57
2019-01-26T06:15:30.023Z,59.72
2019-01-26T06:16:34.255Z,59.73
2019-01-26T06:17:38.258Z,59.73
2019-01-26T06:18:42.260Z,59.59
2019-01-26T06:19:46.185Z,59.54
2019-01-26T06:20:50.361Z,59.62
2019-01-26T06:21:54.372Z,59.79
2019-01-26T06:22:58.369Z,59.84
2019-01-26T06:24:02.447Z,59.83
2019-01-26T06:25:06.937Z,59.84
2019-01-26T06:26:10.955Z,59.84
2019-01-26T06:27:14.951Z,59.71
2019-01-26T06:28:18.954Z,59.78
2019-01-26T06:29:22.961Z,59.84
2019-01-26T06:30:27.325Z,59.90
2019-01-26T06:31:31.571Z,59.94
2019-01-26T06:32:35.566Z,60.05
2019-01-26T06:33:39.556Z,59.99
2019-01-26T06:34:43.559Z,60.30
2019-01-26T06:35:47.594Z,60.25
2019-01-26T06:36:51.594Z,60.48
2019-01-26T06:37:55.874Z,60.46
2019-01-26T06:38:59.711Z,60.42
2019-01-26T06:40:03.805Z,60.49
2019-01-26T06:41:08.359Z,60.57
2019-01-26T06:42:12.537Z,60.34
2019-01-26T06:43:16.533Z,60.55
2019-01-26T06:44:20.532Z,60.48
2019-01-26T06:45:24.533Z,60.63
2019-01-26T06:46:28.528Z,60.66
2019-01-26T06:47:32.601Z,60.72
2019-01-26T06:48:36.592Z,60.60
2019-01-26T06:49:40.514Z,60.58
2019-01-26T06:50:44.746Z,60.48
2019-01-26T06:51:54.786Z,60.58
2019-01-26T06:52:58.812Z,60.40
2019-01-26T06:54:02.847Z,60.23
2019-01-26T06:55:08.228Z,60.12
2019-01-26T06:56:12.512Z,60.15
2019-01-26T06:57:16.821Z,60.31
2019-01-26T06:58:21.163Z,60.36
2019-01-26T06:59:25.184Z,60.22
2019-01-26T07:00:31.008Z,60.17
2019-01-26T07:01:34.942Z,60.16
2019-01-26T07:02:39.015Z,60.17
2019-01-26T07:03:43.054Z,60.15
2019-01-26T07:05:09.129Z,60.13
2019-01-26T07:06:26.483Z,60.10
2019-01-26T07:07:30.501Z,59.90
2019-01-26T07:08:34.432Z,60.05
2019-01-26T07:09:38.434Z,60.07
2019-01-26T07:10:42.455Z,59.98
2019-01-26T07:11:46.510Z,60.01
2019-01-26T07:12:50.544Z,60.09
2019-01-26T07:13:54.553Z,60.20
2019-01-26T07:14:58.480Z,60.23
2019-01-26T07:16:02.596Z,60.17
2019-01-26T07:17:06.595Z,60.01
2019-01-26T07:18:10.935Z,60.08
2019-01-26T07:19:14.932Z,60.14
2019-01-26T07:20:18.947Z,60.12
2019-01-26T07:21:22.953Z,60.14
2019-01-26T07:22:26.890Z,60.17
2019-01-26T07:23:30.850Z,60.17
2019-01-26T07:24:34.888Z,59.90
2019-01-26T07:25:38.824Z,59.84
2019-01-26T07:26:42.825Z,60.00
2019-01-26T07:27:47.142Z,60.10
2019-01-26T07:28:51.162Z,60.00
2019-01-26T07:29:55.445Z,60.07
2019-01-26T07:30:59.807Z,60.14
2019-01-26T07:32:04.033Z,60.13
2019-01-26T07:33:08.043Z,60.11
2019-01-26T07:34:13.444Z,60.12
2019-01-26T07:35:17.682Z,60.11
2019-01-26T07:36:22.126Z,60.10
2019-01-26T07:37:26.408Z,60.10
2019-01-26T07:38:32.386Z,59.97
2019-01-26T07:39:36.992Z,59.97
2019-01-26T07:40:40.928Z,59.95
2019-01-26T07:41:45.031Z,59.95
2019-01-26T07:42:49.039Z,59.81
2019-01-26T07:43:53.042Z,59.87
2019-01-26T07:44:57.001Z,59.88
2019-01-26T07:46:01.325Z,59.85
2019-01-26T07:47:05.575Z,59.86
2019-01-26T07:48:16.547Z,59.84
2019-01-26T07:49:15.586Z,59.85
2019-01-26T07:50:20.337Z,59.82
2019-01-26T07:51:24.853Z,59.72
2019-01-26T07:52:28.853Z,59.76
2019-01-26T07:53:33.160Z,59.88
2019-01-26T07:54:37.408Z,59.95
2019-01-26T07:55:41.408Z,59.92
2019-01-26T07:56:45.411Z,59.99
2019-01-26T07:57:49.654Z,60.04
2019-01-26T07:58:53.648Z,60.09
2019-01-26T07:59:58.199Z,60.12
2019-01-26T08:01:02.368Z,60.10
2019-01-26T08:02:06.365Z,60.10
2019-01-26T08:03:10.378Z,60.10
2019-01-26T08:04:14.389Z,60.04
2019-01-26T08:05:18.707Z,60.03
2019-01-26T08:06:22.712Z,60.04
2019-01-26T08:07:26.878Z,60.02
2019-01-26T08:08:31.780Z,60.06
2019-01-26T08:09:35.798Z,60.11
2019-01-26T08:10:40.043Z,60.11
2019-01-26T08:11:44.305Z,60.10
2019-01-26T08:12:48.578Z,60.09
2019-01-26T08:13:52.592Z,60.12
2019-01-26T08:14:56.609Z,60.12
2019-01-26T08:16:00.881Z,60.11
2019-01-26T08:17:05.213Z,60.07
2019-01-26T08:18:10.255Z,60.01
2019-01-26T08:19:14.655Z,59.94
2019-01-26T08:20:19.922Z,59.89
2019-01-26T08:21:23.950Z,59.87
2019-01-26T08:22:27.900Z,59.85
2019-01-26T08:23:32.485Z,59.85
2019-01-26T08:24:36.840Z,59.84
2019-01-26T08:25:40.875Z,59.86
2019-01-26T08:26:45.232Z,59.86
2019-01-26T08:27:49.254Z,59.86
2019-01-26T08:28:54.246Z,59.84
2019-01-26T08:29:58.567Z,59.81
2019-01-26T08:31:02.951Z,59.62
2019-01-26T08:32:07.299Z,59.61
2019-01-26T08:33:11.722Z,59.65
2019-01-26T08:34:15.977Z,59.70
2019-01-26T08:35:20.602Z,59.75
2019-01-26T08:36:24.780Z,59.80
2019-01-26T08:37:28.911Z,59.81
2019-01-26T08:38:33.221Z,59.83
2019-01-26T08:39:37.945Z,59.85
2019-01-26T08:40:42.350Z,59.86
2019-01-26T08:41:46.656Z,59.68
2019-01-26T08:42:50.805Z,59.76
2019-01-26T08:43:55.406Z,59.79
2019-01-26T08:45:00.299Z,59.85
2019-01-26T08:46:04.603Z,59.89
2019-01-26T08:47:09.427Z,59.90
2019-01-26T08:48:13.453Z,59.92
2019-01-26T08:49:17.694Z,59.94
2019-01-26T08:50:23.597Z,59.94
2019-01-26T08:51:27.643Z,60.00
2019-01-26T08:52:31.999Z,60.00
2019-01-26T08:53:36.395Z,59.92
2019-01-26T08:54:40.636Z,59.82
2019-01-26T08:55:45.237Z,59.89
2019-01-26T08:56:49.369Z,59.79
2019-01-26T08:57:53.690Z,59.73
2019-01-26T08:58:57.710Z,59.73
2019-01-26T09:00:01.935Z,59.68
2019-01-26T09:01:06.072Z,59.65
2019-01-26T09:02:31.865Z,59.63
2019-01-26T09:03:55.141Z,59.60
2019-01-26T09:04:59.347Z,59.55
2019-01-26T09:06:10.265Z,59.62
2019-01-26T09:07:14.406Z,59.71
2019-01-26T09:08:18.887Z,59.74
2019-01-26T09:09:22.915Z,59.73
2019-01-26T09:10:27.205Z,59.76
2019-01-26T09:11:31.346Z,59.80
2019-01-26T09:12:35.703Z,59.82
2019-01-26T09:13:40.237Z,59.80
2019-01-26T09:14:44.169Z,59.79
2019-01-26T09:15:48.350Z,59.79
2019-01-26T09:16:52.442Z,59.71
2019-01-26T09:17:56.468Z,59.70
2019-01-26T09:19:01.131Z,59.87
2019-01-26T09:20:07.672Z,60.00
2019-01-26T09:21:12.083Z,60.08
2019-01-26T09:22:17.181Z,60.17
2019-01-26T09:23:21.882Z,60.20
2019-01-26T09:24:26.696Z,60.14
2019-01-26T09:25:31.086Z,60.03
2019-01-26T09:26:35.927Z,60.03
2019-01-26T09:27:41.450Z,60.05
2019-01-26T09:28:46.503Z,60.01
2019-01-26T09:29:51.318Z,59.92
2019-01-26T09:30:56.681Z,59.88
2019-01-26T09:32:01.862Z,59.87
2019-01-26T09:33:06.552Z,59.78
2019-01-26T09:34:11.402Z,59.84
2019-01-26T09:35:15.757Z,59.88
2019-01-26T09:36:20.746Z,59.92
2019-01-26T09:37:26.011Z,59.92
2019-01-26T09:38:30.773Z,59.87
2019-01-26T09:39:35.609Z,59.84
2019-01-26T09:40:39.984Z,59.84
2019-01-26T09:41:44.244Z,59.71
2019-01-26T09:42:49.947Z,59.66
2019-01-26T09:43:54.750Z,59.75
2019-01-26T09:44:59.538Z,59.81
2019-01-26T09:46:04.446Z,59.78
2019-01-26T09:47:08.851Z,59.81
2019-01-26T09:48:13.398Z,59.86
2019-01-26T09:49:17.738Z,59.89
2019-01-26T09:50:21.980Z,59.91
2019-01-26T09:51:25.994Z,59.86
2019-01-26T09:52:30.042Z,59.85
2019-01-26T09:53:34.816Z,59.87
2019-01-26T09:54:39.519Z,59.84
2019-01-26T09:55:44.053Z,59.75
2019-01-26T09:56:49.032Z,59.73
2019-01-26T09:57:53.235Z,59.75
2019-01-26T09:58:58.020Z,59.78
2019-01-26T10:00:02.298Z,59.78
2019-01-26T10:01:07.548Z,59.74
2019-01-26T10:02:11.911Z,59.71
2019-01-26T10:03:16.457Z,59.69
2019-01-26T10:04:21.521Z,59.63
2019-01-26T10:05:25.876Z,59.61
2019-01-26T10:06:30.992Z,59.62
2019-01-26T10:07:37.295Z,59.61
2019-01-26T10:08:42.584Z,59.58
2019-01-26T10:09:47.310Z,59.54
2019-01-26T10:10:53.172Z,59.54
2019-01-26T10:11:57.972Z,59.52
2019-01-26T10:13:02.467Z,59.47
2019-01-26T10:14:07.331Z,59.39
2019-01-26T10:15:13.514Z,59.33
2019-01-26T10:16:18.001Z,59.32
2019-01-26T10:17:22.686Z,59.33
2019-01-26T10:18:27.705Z,59.29
2019-01-26T10:19:32.725Z,59.23
2019-01-26T10:20:38.139Z,59.17
2019-01-26T10:21:43.443Z,59.05
2019-01-26T10:22:49.179Z,59.08
2019-01-26T10:23:54.834Z,59.06
2019-01-26T10:25:00.041Z,59.07
2019-01-26T10:26:04.999Z,58.87
2019-01-26T10:27:09.448Z,58.91
2019-01-26T10:28:14.672Z,58.94
2019-01-26T10:29:20.462Z,58.87
2019-01-26T10:30:34.264Z,58.87
2019-01-26T10:31:39.363Z,58.85
2019-01-26T10:32:43.876Z,58.76
2019-01-26T10:33:48.313Z,58.85
2019-01-26T10:34:52.791Z,58.86
2019-01-26T10:36:16.381Z,58.88
2019-01-26T10:37:25.803Z,58.83
2019-01-26T10:38:30.973Z,58.83
2019-01-26T10:39:35.601Z,58.82
2019-01-26T10:40:59.292Z,58.81
2019-01-26T10:42:21.034Z,58.77
2019-01-26T10:43:26.408Z,58.72
2019-01-26T10:44:31.788Z,58.64
2019-01-26T10:45:36.815Z,58.55
2019-01-26T10:46:42.051Z,58.62
2019-01-26T10:47:47.390Z,58.61
2019-01-26T10:49:00.451Z,58.60
2019-01-26T10:50:00.479Z,58.59
2019-01-26T10:51:05.036Z,58.59
2019-01-26T10:52:09.919Z,58.56
2019-01-26T10:53:14.982Z,58.54
2019-01-26T10:54:19.667Z,58.47
2019-01-26T10:55:24.685Z,58.48
2019-01-26T10:56:30.439Z,58.52
2019-01-26T10:57:35.093Z,58.46
2019-01-26T10:58:39.974Z,58.47
2019-01-26T10:59:45.278Z,58.52
2019-01-26T11:00:51.553Z,58.55
2019-01-26T11:01:57.038Z,58.51
2019-01-26T11:03:02.267Z,58.34
2019-01-26T11:04:07.925Z,58.21
2019-01-26T11:05:14.372Z,58.30
2019-01-26T11:06:21.199Z,58.45
2019-01-26T11:07:28.298Z,58.53
2019-01-26T11:08:34.343Z,58.56
2019-01-26T11:09:43.074Z,58.60
2019-01-26T11:10:49.269Z,58.58
2019-01-26T11:11:55.142Z,58.54
2019-01-26T11:13:01.581Z,58.56
2019-01-26T11:14:07.630Z,58.45
2019-01-26T11:15:13.941Z,58.38
2019-01-26T11:16:20.952Z,58.40
2019-01-26T11:17:26.658Z,58.40
2019-01-26T11:18:32.840Z,58.29
2019-01-26T11:19:38.956Z,58.27
2019-01-26T11:20:44.852Z,58.28
2019-01-26T11:21:51.115Z,58.32
2019-01-26T11:22:57.475Z,58.35
2019-01-26T11:24:03.005Z,58.37
2019-01-26T11:25:10.113Z,58.40
2019-01-26T11:26:16.208Z,58.35
2019-01-26T11:27:21.623Z,58.40
2019-01-26T11:28:27.299Z,58.42
2019-01-26T11:29:32.214Z,58.37
2019-01-26T11:30:38.575Z,58.33
2019-01-26T11:31:45.067Z,58.27
2019-01-26T11:32:50.903Z,58.25
2019-01-26T11:33:58.760Z,58.21
2019-01-26T11:35:06.175Z,58.15
2019-01-26T11:36:12.127Z,58.12
2019-01-26T11:37:18.500Z,57.99
2019-01-26T11:38:24.756Z,57.96
2019-01-26T11:39:32.584Z,57.98
2019-01-26T11:40:39.451Z,57.94
2019-01-26T11:41:44.973Z,57.85
2019-01-26T11:42:51.254Z,57.78
2019-01-26T11:43:57.406Z,57.72
2019-01-26T11:45:23.475Z,57.67
2019-01-26T11:46:33.372Z,57.67
2019-01-26T11:47:40.268Z,57.60
2019-01-26T11:48:49.030Z,57.53
2019-01-26T11:49:59.231Z,57.45
2019-01-26T11:51:20.651Z,57.37
2019-01-26T11:52:27.185Z,57.23
2019-01-26T11:53:33.954Z,57.16
2019-01-26T11:55:02.751Z,57.12
2019-01-26T11:56:22.763Z,57.08
2019-01-26T11:57:31.808Z,57.05
2019-01-26T11:58:38.352Z,56.92
2019-01-26T11:59:46.473Z,56.83
2019-01-26T12:01:10.886Z,56.80
2019-01-26T12:02:30.006Z,56.72
2019-01-26T12:03:56.982Z,56.66
2019-01-26T12:05:25.100Z,56.60
2019-01-26T12:06:37.446Z,56.56
2019-01-26T12:07:43.550Z,56.42
2019-01-26T12:08:49.392Z,56.42
2019-01-26T12:09:55.739Z,56.40
2019-01-26T12:11:02.273Z,56.00
2019-01-26T12:12:09.111Z,55.57
2019-01-26T12:13:15.869Z,55.83
2019-01-26T12:14:22.559Z,56.04
2019-01-26T12:15:29.646Z,56.08
2019-01-26T12:16:36.029Z,56.12
2019-01-26T12:17:42.152Z,56.15
2019-01-26T12:18:48.422Z,56.13
2019-01-26T12:19:55.840Z,55.99
2019-01-26T12:21:02.193Z,55.89
2019-01-26T12:22:08.189Z,55.85
2019-01-26T12:23:15.654Z,55.80
2019-01-26T12:24:21.930Z,55.70
2019-01-26T12:25:28.296Z,55.62
2019-01-26T12:26:35.551Z,55.57
2019-01-26T12:27:42.051Z,55.56
2019-01-26T12:28:49.613Z,55.41
2019-01-26T12:29:56.157Z,55.37
2019-01-26T12:31:03.544Z,55.25
2019-01-26T12:32:10.019Z,55.19
2019-01-26T12:33:16.383Z,55.27
2019-01-26T12:34:22.594Z,55.12
2019-01-26T12:35:28.608Z,55.07
2019-01-26T12:36:35.248Z,55.11
2019-01-26T12:37:41.491Z,55.18
2019-01-26T12:38:48.039Z,55.28
2019-01-26T12:39:55.388Z,55.32
2019-01-26T12:41:01.733Z,55.25
2019-01-26T12:42:09.005Z,55.13
2019-01-26T12:43:17.277Z,55.25
2019-01-26T12:44:24.722Z,55.31
2019-01-26T12:45:31.163Z,55.38
2019-01-26T12:46:37.877Z,55.46
2019-01-26T12:47:44.789Z,55.47
2019-01-26T12:48:51.035Z,55.55
2019-01-26T12:49:58.143Z,55.60
2019-01-26T12:51:05.386Z,55.64
2019-01-26T12:52:12.052Z,55.64
2019-01-26T12:53:18.229Z,55.67
2019-01-26T12:54:25.092Z,55.68
2019-01-26T12:55:31.443Z,55.63
2019-01-26T12:56:37.748Z,55.56
2019-01-26T12:57:43.942Z,55.59
2019-01-26T12:58:51.125Z,55.56
2019-01-26T12:59:58.269Z,55.55
2019-01-26T13:01:06.039Z,55.52
2019-01-26T13:02:13.574Z,55.45
2019-01-26T13:03:21.262Z,55.35
2019-01-26T13:04:28.119Z,55.29
2019-01-26T13:05:34.900Z,55.33
2019-01-26T13:06:43.827Z,55.35
2019-01-26T13:07:51.070Z,55.41
2019-01-26T13:08:59.239Z,55.48
2019-01-26T13:10:09.310Z,55.52
2019-01-26T13:11:34.795Z,55.57
2019-01-26T13:12:41.548Z,55.54
2019-01-26T13:13:48.614Z,55.54
2019-01-26T13:14:55.523Z,55.44
2019-01-26T13:16:02.790Z,55.40
2019-01-26T13:17:10.280Z,55.46
2019-01-26T13:18:17.124Z,55.53
2019-01-26T13:19:25.103Z,55.55
2019-01-26T13:20:32.270Z,55.53
2019-01-26T13:21:39.153Z,55.48
2019-01-26T13:22:47.058Z,55.37
2019-01-26T13:23:54.107Z,55.41
2019-01-26T13:25:01.414Z,55.49
2019-01-26T13:26:08.633Z,55.55
2019-01-26T13:27:16.000Z,55.54
2019-01-26T13:28:24.213Z,55.51
2019-01-26T13:29:31.531Z,55.53
2019-01-26T13:30:38.159Z,55.55
2019-01-26T13:31:45.610Z,55.51
2019-01-26T13:32:52.917Z,55.50
2019-01-26T13:34:00.889Z,55.58
2019-01-26T13:35:08.474Z,55.52
2019-01-26T13:36:15.435Z,55.62
2019-01-26T13:37:23.129Z,55.60
2019-01-26T13:38:31.097Z,55.65
2019-01-26T13:39:38.681Z,55.74
2019-01-26T13:40:46.573Z,55.67
2019-01-26T13:41:54.808Z,55.71
2019-01-26T13:43:04.056Z,55.89
2019-01-26T13:44:14.928Z,55.95
2019-01-26T13:45:22.710Z,55.95
2019-01-26T13:46:31.016Z,55.92
2019-01-26T13:47:40.256Z,55.96
2019-01-26T13:48:49.464Z,55.90
2019-01-26T13:49:56.672Z,55.77
2019-01-26T13:51:04.358Z,55.68
2019-01-26T13:52:12.019Z,55.60
2019-01-26T13:53:20.177Z,55.57
2019-01-26T13:54:28.458Z,55.54
2019-01-26T13:55:36.496Z,55.49
2019-01-26T13:56:43.339Z,55.41
2019-01-26T13:57:51.472Z,55.32
2019-01-26T13:58:58.106Z,55.16
2019-01-26T14:00:05.370Z,55.12
2019-01-26T14:01:12.170Z,55.02